Time;durP1;ratioP1;P1;durP2;ratioP2;P2;SDS_P1;SDS_P2;PMS_P1;PMS_P2;Temp;Humidity;BMP_temperature;BMP_pressure;BME280_temperature;BME280_humidity;BME280_pressure;Samples;Min_cycle;Max_cycle;Signal;HPM_P1;HPM_P2
2022/10/22 00:02:14;;;;;;;;;;;;;;;;;;5033092;28;19909;-62
2022/10/22 00:04:40;;;;;;;;;;;;;;;;;;5033217;28;20420;-63
2022/10/22 00:07:06;;;;;;;;;;;;;;;;;;5033044;28;19909;-63
2022/10/22 00:09:32;;;;;;;;;;;;;;;;;;5033320;28;19960;-64
2022/10/22 00:11:58;;;;;;;;;;;;;;;;;;5032961;28;19966;-64
2022/10/22 00:14:24;;;;;;;;;;;;;;;;;;5033123;28;19940;-63
2022/10/22 00:16:50;;;;;;;;;;;;;;;;;;5033438;28;19996;-64
2022/10/22 00:19:16;;;;;;;;;;;;;;;;;;5032609;28;19932;-63
2022/10/22 00:21:42;;;;;;;;;;;;;;;;;;5033167;28;19936;-62
2022/10/22 00:24:08;;;;;;;;;;;;;;;;;;5032695;28;19909;-63
2022/10/22 00:26:33;;;;;;;;;;;;;;;;;;5033009;28;19910;-64
2022/10/22 00:28:59;;;;;;;;;;;;;;;;;;5026620;28;19913;-64
2022/10/22 00:31:25;;;;;;;;;;;;;;;;;;5032787;28;19917;-63
2022/10/22 00:33:51;;;;;;;;;;;;;;;;;;5031914;28;19986;-63
2022/10/22 00:36:17;;;;;;;;;;;;;;;;;;5032459;28;19917;-64
2022/10/22 00:38:43;;;;;;;;;;;;;;;;;;5032607;28;20254;-63
2022/10/22 00:41:09;;;;;;;;;;;;;;;;;;5032799;28;19992;-64
2022/10/22 00:43:34;;;;;;;;;;;;;;;;;;5032537;28;20298;-63
2022/10/22 00:46:00;;;;;;;;;;;;;;;;;;5032308;28;19913;-62
2022/10/22 00:48:26;;;;;;;;;;;;;;;;;;5031967;28;20655;-61
2022/10/22 00:50:54;;;;;;;;;;;;;;;;;;5032180;28;19928;-62
2022/10/22 00:53:20;;;;;;;;;;;;;;;;;;5032039;28;19979;-63
2022/10/22 00:55:46;;;;;;;;;;;;;;;;;;5033014;28;19913;-63
2022/10/22 00:58:12;;;;;;;;;;;;;;;;;;5031657;28;19955;-61
2022/10/22 01:00:37;;;;;;;;;;;;;;;;;;5031981;28;20000;-63
2022/10/22 01:03:03;;;;;;;;;;;;;;;;;;5031883;28;19909;-64
2022/10/22 01:05:29;;;;;;;;;;;;;;;;;;5032237;28;20649;-63
2022/10/22 01:07:55;;;;;;;;;;;;;;;;;;5031884;28;19909;-63
2022/10/22 01:10:21;;;;;;;;;;;;;;;;;;5032093;28;19917;-63
2022/10/22 01:12:47;;;;;;;;;;;;;;;;;;5031857;28;19910;-63
2022/10/22 01:15:13;;;;;;;;;;;;;;;;;;5032005;28;19909;-62
2022/10/22 01:17:39;;;;;;;;;;;;;;;;;;5031527;28;20003;-63
2022/10/22 01:20:04;;;;;;;;;;;;;;;;;;5031909;28;19913;-63
2022/10/22 01:22:30;;;;;;;;;;;;;;;;;;5031920;28;20293;-63
2022/10/22 01:24:56;;;;;;;;;;;;;;;;;;5030455;28;20004;-63
2022/10/22 01:27:22;;;;;;;;;;;;;;;;;;5031522;28;20358;-63
2022/10/22 01:29:48;;;;;;;;;;;;;;;;;;5031629;28;19979;-64
2022/10/22 01:32:14;;;;;;;;;;;;;;;;;;5024951;28;19913;-62
2022/10/22 01:34:40;;;;;;;;;;;;;;;;;;5031721;28;19917;-64
2022/10/22 01:37:06;;;;;;;;;;;;;;;;;;5031568;28;19996;-63
2022/10/22 01:39:31;;;;;;;;;;;;;;;;;;5031225;28;20404;-64
2022/10/22 01:41:57;;;;;;;;;;;;;;;;;;5031531;28;19955;-63
2022/10/22 01:44:23;;;;;;;;;;;;;;;;;;5031660;28;20398;-64
2022/10/22 01:46:49;;;;;;;;;;;;;;;;;;5029658;28;20008;-63
2022/10/22 01:49:15;;;;;;;;;;;;;;;;;;5031435;28;20302;-63
2022/10/22 01:51:41;;;;;;;;;;;;;;;;;;5031350;28;20274;-62
2022/10/22 01:54:07;;;;;;;;;;;;;;;;;;5031359;28;19913;-64
2022/10/22 01:56:35;;;;;;;;;;;;;;;;;;5031519;28;20263;-63
2022/10/22 01:59:00;;;;;;;;;;;;;;;;;;5031016;28;19909;-63
2022/10/22 02:01:26;;;;;;;;;;;;;;;;;;5031161;28;19909;-64
2022/10/22 02:03:52;;;;;;;;;;;;;;;;;;5031161;28;20397;-64
2022/10/22 02:06:18;;;;;;;;;;;;;;;;;;5029839;28;19910;-64
2022/10/22 02:08:44;;;;;;;;;;;;;;;;;;5030698;28;19971;-61
2022/10/22 02:11:10;;;;;;;;;;;;;;;;;;5030968;28;19917;-65
2022/10/22 02:13:37;;;;;;;;;;;;;;;;;;5030517;28;19909;-62
2022/10/22 02:16:03;;;;;;;;;;;;;;;;;;5031099;28;19909;-64
2022/10/22 02:18:29;;;;;;;;;;;;;;;;;;5031106;28;20331;-62
2022/10/22 02:20:55;;;;;;;;;;;;;;;;;;5031389;28;19913;-63
2022/10/22 02:23:21;;;;;;;;;;;;;;;;;;5031438;28;20374;-63
2022/10/22 02:25:47;;;;;;;;;;;;;;;;;;5030797;28;19932;-63
2022/10/22 02:28:12;;;;;;;;;;;;;;;;;;5030861;28;20383;-63
2022/10/22 02:30:38;;;;;;;;;;;;;;;;;;5030774;28;19974;-64
2022/10/22 02:33:04;;;;;;;;;;;;;;;;;;5031183;28;20259;-62
2022/10/22 02:35:30;;;;;;;;;;;;;;;;;;5030999;28;19925;-64
2022/10/22 02:37:56;;;;;;;;;;;;;;;;;;5031067;28;20377;-63
2022/10/22 02:40:22;;;;;;;;;;;;;;;;;;5030295;28;19909;-63
2022/10/22 02:42:48;;;;;;;;;;;;;;;;;;5031235;28;20382;-64
2022/10/22 02:45:14;;;;;;;;;;;;;;;;;;5030505;28;19995;-64
2022/10/22 02:47:39;;;;;;;;;;;;;;;;;;5030751;28;19966;-64
2022/10/22 02:50:05;;;;;;;;;;;;;;;;;;5030581;28;20029;-64
2022/10/22 02:52:31;;;;;;;;;;;;;;;;;;5030407;28;20377;-65
2022/10/22 02:54:57;;;;;;;;;;;;;;;;;;5029556;28;19909;-64
2022/10/22 02:57:23;;;;;;;;;;;;;;;;;;5030345;28;20002;-63
2022/10/22 02:59:49;;;;;;;;;;;;;;;;;;5030643;28;19945;-64
2022/10/22 03:02:15;;;;;;;;;;;;;;;;;;5030759;28;19920;-64
2022/10/22 03:04:41;;;;;;;;;;;;;;;;;;5030751;28;19924;-63
2022/10/22 03:07:07;;;;;;;;;;;;;;;;;;5031516;28;19913;-63
2022/10/22 03:09:33;;;;;;;;;;;;;;;;;;5030464;28;19921;-64
2022/10/22 03:11:59;;;;;;;;;;;;;;;;;;5030338;28;19913;-64
2022/10/22 03:14:24;;;;;;;;;;;;;;;;;;5029899;28;20593;-63
2022/10/22 03:16:50;;;;;;;;;;;;;;;;;;5030109;28;19917;-64
2022/10/22 03:19:16;;;;;;;;;;;;;;;;;;5030462;28;19955;-65
2022/10/22 03:21:42;;;;;;;;;;;;;;;;;;5030344;28;19952;-63
2022/10/22 03:24:08;;;;;;;;;;;;;;;;;;5030890;28;20008;-64
2022/10/22 03:26:34;;;;;;;;;;;;;;;;;;5032714;28;19909;-64
2022/10/22 03:29:00;;;;;;;;;;;;;;;;;;5033719;28;19917;-63
2022/10/22 03:31:26;;;;;;;;;;;;;;;;;;5034282;28;19923;-65
2022/10/22 03:33:52;;;;;;;;;;;;;;;;;;5033689;28;19909;-63
2022/10/22 03:36:18;;;;;;;;;;;;;;;;;;5033605;28;20385;-63
2022/10/22 03:38:44;;;;;;;;;;;;;;;;;;5033904;28;19909;-63
2022/10/22 03:41:09;;;;;;;;;;;;;;;;;;5026707;28;19912;-63
2022/10/22 03:43:35;;;;;;;;;;;;;;;;;;5033326;28;20366;-63
2022/10/22 03:46:01;;;;;;;;;;;;;;;;;;5033262;28;19960;-63
2022/10/22 03:48:27;;;;;;;;;;;;;;;;;;5033180;28;19921;-63
2022/10/22 03:50:53;;;;;;;;;;;;;;;;;;5033763;28;19917;-64
2022/10/22 03:53:19;;;;;;;;;;;;;;;;;;5033284;28;20396;-64
2022/10/22 03:55:45;;;;;;;;;;;;;;;;;;5026347;28;20433;-64
2022/10/22 03:58:11;;;;;;;;;;;;;;;;;;5033384;28;19917;-64
2022/10/22 04:00:36;;;;;;;;;;;;;;;;;;5033366;28;19909;-63
2022/10/22 04:03:02;;;;;;;;;;;;;;;;;;5033190;28;20412;-64
2022/10/22 04:05:28;;;;;;;;;;;;;;;;;;5033048;28;19913;-64
2022/10/22 04:07:54;;;;;;;;;;;;;;;;;;5032957;28;20293;-63
2022/10/22 04:10:20;;;;;;;;;;;;;;;;;;5033624;28;20005;-62
2022/10/22 04:12:46;;;;;;;;;;;;;;;;;;5032619;28;20325;-63
2022/10/22 04:15:12;;;;;;;;;;;;;;;;;;5032895;28;19917;-63
2022/10/22 04:17:38;;;;;;;;;;;;;;;;;;5029876;28;19916;-62
2022/10/22 04:20:03;;;;;;;;;;;;;;;;;;5033163;28;20004;-63
2022/10/22 04:22:29;;;;;;;;;;;;;;;;;;5032740;28;19905;-63
2022/10/22 04:24:55;;;;;;;;;;;;;;;;;;5032876;28;19909;-62
2022/10/22 04:27:21;;;;;;;;;;;;;;;;;;5032902;28;20392;-64
2022/10/22 04:29:47;;;;;;;;;;;;;;;;;;5032815;28;19910;-63
2022/10/22 04:32:13;;;;;;;;;;;;;;;;;;5032373;28;19917;-64
2022/10/22 04:34:39;;;;;;;;;;;;;;;;;;5032345;28;19913;-64
2022/10/22 04:37:05;;;;;;;;;;;;;;;;;;5032316;28;19913;-63
2022/10/22 04:39:30;;;;;;;;;;;;;;;;;;5032265;28;19913;-62
2022/10/22 04:41:56;;;;;;;;;;;;;;;;;;5025615;28;19916;-63
2022/10/22 04:44:22;;;;;;;;;;;;;;;;;;5032606;28;20378;-61
2022/10/22 04:46:48;;;;;;;;;;;;;;;;;;5032394;28;20004;-64
2022/10/22 04:49:14;;;;;;;;;;;;;;;;;;5032538;28;19972;-65
2022/10/22 04:51:40;;;;;;;;;;;;;;;;;;5032303;28;20415;-64
2022/10/22 04:54:06;;;;;;;;;;;;;;;;;;5032307;28;19916;-62
2022/10/22 04:56:32;;;;;;;;;;;;;;;;;;5031509;28;19916;-61
2022/10/22 04:58:58;;;;;;;;;;;;;;;;;;5032201;28;19925;-63
2022/10/22 05:01:23;;;;;;;;;;;;;;;;;;5032095;28;20000;-64
2022/10/22 05:03:49;;;;;;;;;;;;;;;;;;5032346;28;19913;-64
2022/10/22 05:06:15;;;;;;;;;;;;;;;;;;5032250;28;20285;-64
2022/10/22 05:08:42;;;;;;;;;;;;;;;;;;5032107;28;19919;-64
2022/10/22 05:11:08;;;;;;;;;;;;;;;;;;5031721;28;19922;-64
2022/10/22 05:13:34;;;;;;;;;;;;;;;;;;5032235;28;19938;-64
2022/10/22 05:15:59;;;;;;;;;;;;;;;;;;5031799;28;20271;-62
2022/10/22 05:18:25;;;;;;;;;;;;;;;;;;5031564;28;19948;-63
2022/10/22 05:20:51;;;;;;;;;;;;;;;;;;5031751;28;20067;-64
2022/10/22 05:23:17;;;;;;;;;;;;;;;;;;5031535;28;19909;-64
2022/10/22 05:25:43;;;;;;;;;;;;;;;;;;5031620;28;19909;-64
2022/10/22 05:28:09;;;;;;;;;;;;;;;;;;5032066;28;19945;-64
2022/10/22 05:30:35;;;;;;;;;;;;;;;;;;5031557;28;19921;-63
2022/10/22 05:33:01;;;;;;;;;;;;;;;;;;5031668;28;19913;-63
2022/10/22 05:35:26;;;;;;;;;;;;;;;;;;5032104;28;19955;-64
2022/10/22 05:37:52;;;;;;;;;;;;;;;;;;5031395;28;19909;-64
2022/10/22 05:40:18;;;;;;;;;;;;;;;;;;5031140;28;20008;-64
2022/10/22 05:42:44;;;;;;;;;;;;;;;;;;5031455;28;19913;-63
2022/10/22 05:45:10;;;;;;;;;;;;;;;;;;5031753;28;19913;-64
2022/10/22 05:47:36;;;;;;;;;;;;;;;;;;5030897;28;20008;-62
2022/10/22 05:50:02;;;;;;;;;;;;;;;;;;5031132;28;20398;-63
2022/10/22 05:52:28;;;;;;;;;;;;;;;;;;5031008;28;19971;-63
2022/10/22 05:54:54;;;;;;;;;;;;;;;;;;5031235;28;19913;-63
2022/10/22 05:57:20;;;;;;;;;;;;;;;;;;5031677;28;20436;-64
2022/10/22 05:59:45;;;;;;;;;;;;;;;;;;5031525;28;19955;-62
2022/10/22 06:02:11;;;;;;;;;;;;;;;;;;5031139;28;19964;-63
2022/10/22 06:04:37;;;;;;;;;;;;;;;;;;5031135;28;19917;-63
2022/10/22 06:07:03;;;;;;;;;;;;;;;;;;5031330;28;20000;-64
2022/10/22 06:09:29;;;;;;;;;;;;;;;;;;5030991;28;19994;-64
2022/10/22 06:11:55;;;;;;;;;;;;;;;;;;5031009;28;20386;-63
2022/10/22 06:14:21;;;;;;;;;;;;;;;;;;5031011;28;19916;-63
2022/10/22 06:16:47;;;;;;;;;;;;;;;;;;5031205;28;19909;-63
2022/10/22 06:19:12;;;;;;;;;;;;;;;;;;5031005;28;19917;-64
2022/10/22 06:21:38;;;;;;;;;;;;;;;;;;5030620;28;19909;-64
2022/10/22 06:24:04;;;;;;;;;;;;;;;;;;5031002;28;19909;-63
2022/10/22 06:26:30;;;;;;;;;;;;;;;;;;5031334;28;19920;-64
2022/10/22 06:28:56;;;;;;;;;;;;;;;;;;5030838;28;19971;-63
2022/10/22 06:31:22;;;;;;;;;;;;;;;;;;5031086;28;19917;-63
2022/10/22 06:33:48;;;;;;;;;;;;;;;;;;5030894;28;19960;-64
2022/10/22 06:36:14;;;;;;;;;;;;;;;;;;5030266;28;20378;-64
2022/10/22 06:38:40;;;;;;;;;;;;;;;;;;5029354;28;19955;-64
2022/10/22 06:41:05;;;;;;;;;;;;;;;;;;5030601;28;19913;-63
2022/10/22 06:43:31;;;;;;;;;;;;;;;;;;5031126;28;19909;-64
2022/10/22 06:45:57;;;;;;;;;;;;;;;;;;5024128;28;20366;-63
2022/10/22 06:48:23;;;;;;;;;;;;;;;;;;5030641;28;19921;-64
2022/10/22 06:50:49;;;;;;;;;;;;;;;;;;5030591;28;19948;-64
2022/10/22 06:53:15;;;;;;;;;;;;;;;;;;5030989;28;19991;-63
2022/10/22 06:55:41;;;;;;;;;;;;;;;;;;5030670;28;19959;-64
2022/10/22 06:58:07;;;;;;;;;;;;;;;;;;5031033;28;19916;-63
2022/10/22 07:00:32;;;;;;;;;;;;;;;;;;5033306;28;19915;-64
2022/10/22 07:02:58;;;;;;;;;;;;;;;;;;5034460;28;19909;-63
2022/10/22 07:05:24;;;;;;;;;;;;;;;;;;5033929;28;20282;-63
2022/10/22 07:07:50;;;;;;;;;;;;;;;;;;5034669;28;20016;-64
2022/10/22 07:10:16;;;;;;;;;;;;;;;;;;5034282;28;20405;-63
2022/10/22 07:12:42;;;;;;;;;;;;;;;;;;5032879;28;19909;-61
2022/10/22 07:15:08;;;;;;;;;;;;;;;;;;5033524;28;19909;-62
2022/10/22 07:17:34;;;;;;;;;;;;;;;;;;5033534;28;20008;-71
2022/10/22 07:19:59;;;;;;;;;;;;;;;;;;5033260;28;20730;-71
2022/10/22 07:22:25;;;;;;;;;;;;;;;;;;5035528;28;19916;-71
2022/10/22 07:24:51;;;;;;;;;;;;;;;;;;5035841;28;20403;-70
2022/10/22 07:27:17;;;;;;;;;;;;;;;;;;5032247;28;19919;-70
2022/10/22 07:29:43;;;;;;;;;;;;;;;;;;5032730;28;19967;-71
2022/10/22 07:32:09;;;;;;;;;;;;;;;;;;5033812;28;20731;-73
2022/10/22 07:34:35;;;;;;;;;;;;;;;;;;5032900;28;19909;-74
2022/10/22 07:37:01;;;;;;;;;;;;;;;;;;5033016;28;20504;-75
2022/10/22 07:39:27;;;;;;;;;;;;;;;;;;5033046;28;19909;-75
2022/10/22 07:41:53;;;;;;;;;;;;;;;;;;5024316;28;19925;-74
2022/10/22 07:44:19;;;;;;;;;;;;;;;;;;5030385;28;19909;-77
2022/10/22 07:46:45;;;;;;;;;;;;;;;;;;5032411;28;20467;-74
2022/10/22 07:49:11;;;;;;;;;;;;;;;;;;5031993;28;19931;-77
2022/10/22 07:51:37;;;;;;;;;;;;;;;;;;5032592;28;20394;-74
2022/10/22 07:54:03;;;;;;;;;;;;;;;;;;5032227;28;20000;-73
2022/10/22 07:56:28;;;;;;;;;;;;;;;;;;5031724;28;20732;-71
2022/10/22 07:58:54;;;;;;;;;;;;;;;;;;5030615;28;20011;-72
2022/10/22 08:01:20;;;;;;;;;;;;;;;;;;5031631;28;19913;-73
2022/10/22 08:03:47;;;;;;;;;;;;;;;;;;5031665;28;20012;-73
2022/10/22 08:06:13;;;;;;;;;;;;;;;;;;5030728;28;19913;-75
2022/10/22 08:08:39;;;;;;;;;;;;;;;;;;5031185;28;19909;-73
2022/10/22 08:11:05;;;;;;;;;;;;;;;;;;5029741;28;19925;-76
2022/10/22 08:13:31;;;;;;;;;;;;;;;;;;5030974;28;19923;-75
2022/10/22 08:15:57;;;;;;;;;;;;;;;;;;5030659;28;19962;-75
2022/10/22 08:18:23;;;;;;;;;;;;;;;;;;5028007;28;19909;-75
2022/10/22 08:20:49;;;;;;;;;;;;;;;;;;5031083;28;19916;-74
2022/10/22 08:23:15;;;;;;;;;;;;;;;;;;5031299;28;20516;-75
2022/10/22 08:25:40;;;;;;;;;;;;;;;;;;5031544;28;19913;-75
2022/10/22 08:28:06;;;;;;;;;;;;;;;;;;5031165;28;19916;-75
2022/10/22 08:30:32;;;;;;;;;;;;;;;;;;5031409;28;19917;-75
2022/10/22 08:32:58;;;;;;;;;;;;;;;;;;5031337;28;20391;-75
2022/10/22 08:35:24;;;;;;;;;;;;;;;;;;5030809;28;19914;-76
2022/10/22 08:37:50;;;;;;;;;;;;;;;;;;5030958;28;19941;-73
2022/10/22 08:40:16;;;;;;;;;;;;;;;;;;5031843;28;19999;-62
2022/10/22 08:42:42;;;;;;;;;;;;;;;;;;5024403;28;19917;-62
2022/10/22 08:45:08;;;;;;;;;;;;;;;;;;5031072;28;19913;-65
2022/10/22 08:47:34;;;;;;;;;;;;;;;;;;5031179;28;19991;-63
2022/10/22 08:49:59;;;;;;;;;;;;;;;;;;5031241;28;19913;-65
2022/10/22 08:52:25;;;;;;;;;;;;;;;;;;5031716;28;19915;-62
2022/10/22 08:54:54;;;;;;;;;;;;;;;;;;5031429;28;19929;-70
2022/10/22 08:57:20;;;;;;;;;;;;;;;;;;5030827;28;19972;-67
2022/10/22 08:59:46;;;;;;;;;;;;;;;;;;5031100;28;19924;-67
2022/10/22 09:02:12;;;;;;;;;;;;;;;;;;5030497;28;20000;-66
2022/10/22 09:04:40;;;;;;;;;;;;;;;;;;5030887;28;19909;-67
2022/10/22 09:07:06;;;;;;;;;;;;;;;;;;5031338;28;20239;-66
2022/10/22 09:09:33;;;;;;;;;;;;;;;;;;5031221;28;19921;-66
2022/10/22 09:11:59;;;;;;;;;;;;;;;;;;5030587;28;19964;-67
2022/10/22 09:14:25;;;;;;;;;;;;;;;;;;5030514;28;19909;-67
2022/10/22 09:16:51;;;;;;;;;;;;;;;;;;5030490;28;20004;-66
2022/10/22 09:19:17;;;;;;;;;;;;;;;;;;5031010;28;20711;-65
2022/10/22 09:21:43;;;;;;;;;;;;;;;;;;5030739;28;19909;-62
2022/10/22 09:24:09;;;;;;;;;;;;;;;;;;5030617;28;20382;-69
2022/10/22 09:26:35;;;;;;;;;;;;;;;;;;5031041;28;20008;-76
2022/10/22 09:29:01;;;;;;;;;;;;;;;;;;5030546;28;19909;-68
2022/10/22 09:31:26;;;;;;;;;;;;;;;;;;5029967;28;19990;-67
2022/10/22 09:33:52;;;;;;;;;;;;;;;;;;5030656;28;20390;-68
2022/10/22 09:36:18;;;;;;;;;;;;;;;;;;5030392;28;19913;-67
2022/10/22 09:38:44;;;;;;;;;;;;;;;;;;5030020;28;20397;-68
2022/10/22 09:41:10;;;;;;;;;;;;;;;;;;5030277;28;20159;-68
2022/10/22 09:43:36;;;;;;;;;;;;;;;;;;5029781;28;19932;-68
2022/10/22 09:46:02;;;;;;;;;;;;;;;;;;5029770;28;19913;-65
2022/10/22 09:48:29;;;;;;;;;;;;;;;;;;5029924;28;20240;-66
2022/10/22 09:50:56;;;;;;;;;;;;;;;;;;5028344;28;20147;-70
2022/10/22 09:53:22;;;;;;;;;;;;;;;;;;5030620;28;20011;-71
2022/10/22 09:55:48;;;;;;;;;;;;;;;;;;5030088;28;19913;-67
2022/10/22 09:58:13;;;;;;;;;;;;;;;;;;5029723;28;19909;-68
2022/10/22 10:00:39;;;;;;;;;;;;;;;;;;5029552;28;19957;-68
2022/10/22 10:03:05;;;;;;;;;;;;;;;;;;5029721;28;19913;-68
2022/10/22 10:05:31;;;;;;;;;;;;;;;;;;5029961;28;20126;-67
2022/10/22 10:07:58;;;;;;;;;;;;;;;;;;5030214;28;19909;-68
2022/10/22 10:10:24;;;;;;;;;;;;;;;;;;5029896;28;19956;-67
2022/10/22 10:12:51;;;;;;;;;;;;;;;;;;5029393;28;19963;-68
2022/10/22 10:15:17;;;;;;;;;;;;;;;;;;5029615;28;19916;-67
2022/10/22 10:17:43;;;;;;;;;;;;;;;;;;5029657;28;19913;-67
2022/10/22 10:20:08;;;;;;;;;;;;;;;;;;5029714;28;19910;-69
2022/10/22 10:22:34;;;;;;;;;;;;;;;;;;5029828;28;19916;-69
2022/10/22 10:25:00;;;;;;;;;;;;;;;;;;5028915;28;19913;-68
2022/10/22 10:27:26;;;;;;;;;;;;;;;;;;5029082;28;19948;-69
2022/10/22 10:29:52;;;;;;;;;;;;;;;;;;5029110;28;19929;-67
2022/10/22 10:32:18;;;;;;;;;;;;;;;;;;5029913;28;19996;-68
2022/10/22 10:34:44;;;;;;;;;;;;;;;;;;5031380;28;19975;-68
2022/10/22 10:37:10;;;;;;;;;;;;;;;;;;5033187;28;19909;-69
2022/10/22 10:39:36;;;;;;;;;;;;;;;;;;5033097;28;20317;-69
2022/10/22 10:42:02;;;;;;;;;;;;;;;;;;5033387;28;19917;-68
2022/10/22 10:44:27;;;;;;;;;;;;;;;;;;5032198;28;20303;-69
2022/10/22 10:46:53;;;;;;;;;;;;;;;;;;5031018;28;19909;-69
2022/10/22 10:49:19;;;;;;;;;;;;;;;;;;5028972;28;19924;-69
2022/10/22 10:51:45;;;;;;;;;;;;;;;;;;5033384;28;19924;-69
2022/10/22 10:54:11;;;;;;;;;;;;;;;;;;5033798;28;19913;-68
2022/10/22 10:56:37;;;;;;;;;;;;;;;;;;5033184;28;19936;-67
2022/10/22 10:59:03;;;;;;;;;;;;;;;;;;5032604;28;19915;-66
2022/10/22 11:01:29;;;;;;;;;;;;;;;;;;5032397;28;19917;-68
2022/10/22 11:03:55;;;;;;;;;;;;;;;;;;5032848;28;19910;-68
2022/10/22 11:06:21;;;;;;;;;;;;;;;;;;5033077;28;20435;-67
2022/10/22 11:08:48;;;;;;;;;;;;;;;;;;5032084;28;19915;-68
2022/10/22 11:11:15;;;;;;;;;;;;;;;;;;5025624;28;19924;-68
2022/10/22 11:13:41;;;;;;;;;;;;;;;;;;5031747;28;19913;-67
2022/10/22 11:16:06;;;;;;;;;;;;;;;;;;5033124;28;19916;-68
2022/10/22 11:18:32;;;;;;;;;;;;;;;;;;5031948;28;19909;-67
2022/10/22 11:20:58;;;;;;;;;;;;;;;;;;5031793;28;19909;-66
2022/10/22 11:23:24;;;;;;;;;;;;;;;;;;5032302;28;20301;-68
2022/10/22 11:25:50;;;;;;;;;;;;;;;;;;5030875;28;19913;-67
2022/10/22 11:28:16;;;;;;;;;;;;;;;;;;5032077;28;20016;-65
2022/10/22 11:30:42;;;;;;;;;;;;;;;;;;5031952;28;20025;-63
2022/10/22 11:33:08;;;;;;;;;;;;;;;;;;5032497;28;20370;-60
2022/10/22 11:35:34;;;;;;;;;;;;;;;;;;5032229;28;19913;-63
2022/10/22 11:38:00;;;;;;;;;;;;;;;;;;5032271;28;19916;-63
2022/10/22 11:40:25;;;;;;;;;;;;;;;;;;5031244;28;19956;-64
2022/10/22 11:42:51;;;;;;;;;;;;;;;;;;5031685;28;20928;-62
2022/10/22 11:45:18;;;;;;;;;;;;;;;;;;5031589;28;19941;-61
2022/10/22 11:47:44;;;;;;;;;;;;;;;;;;5031246;28;20075;-62
2022/10/22 11:50:10;;;;;;;;;;;;;;;;;;5031729;28;20426;-62
2022/10/22 11:52:35;;;;;;;;;;;;;;;;;;5031497;28;19913;-61
2022/10/22 11:55:01;;;;;;;;;;;;;;;;;;5030832;28;19920;-62
2022/10/22 11:57:27;;;;;;;;;;;;;;;;;;5031740;28;19909;-62
2022/10/22 11:59:53;;;;;;;;;;;;;;;;;;5031535;28;20380;-67
2022/10/22 12:02:19;;;;;;;;;;;;;;;;;;5031950;28;19913;-61
2022/10/22 12:04:45;;;;;;;;;;;;;;;;;;5031421;28;19963;-63
2022/10/22 12:07:11;;;;;;;;;;;;;;;;;;5031591;28;20270;-64
2022/10/22 12:09:37;;;;;;;;;;;;;;;;;;5030279;28;19913;-65
2022/10/22 12:12:03;;;;;;;;;;;;;;;;;;5030407;28;20632;-65
2022/10/22 12:14:29;;;;;;;;;;;;;;;;;;5030231;28;20307;-63
2022/10/22 12:16:54;;;;;;;;;;;;;;;;;;5029255;28;20047;-65
2022/10/22 12:19:20;;;;;;;;;;;;;;;;;;5029953;28;19921;-64
2022/10/22 12:21:47;;;;;;;;;;;;;;;;;;5029861;28;19971;-65
2022/10/22 12:24:14;;;;;;;;;;;;;;;;;;5030119;28;19917;-64
2022/10/22 12:26:39;;;;;;;;;;;;;;;;;;5026847;28;19939;-64
2022/10/22 12:29:06;;;;;;;;;;;;;;;;;;5030731;28;20003;-64
2022/10/22 12:31:32;;;;;;;;;;;;;;;;;;5030339;28;19921;-63
2022/10/22 12:33:58;;;;;;;;;;;;;;;;;;5030966;28;19909;-64
2022/10/22 12:36:24;;;;;;;;;;;;;;;;;;5031038;28;20382;-63
2022/10/22 12:38:50;;;;;;;;;;;;;;;;;;5030153;28;19913;-64
2022/10/22 12:41:16;;;;;;;;;;;;;;;;;;5030791;28;20275;-63
2022/10/22 12:43:42;;;;;;;;;;;;;;;;;;5031257;28;19948;-65
2022/10/22 12:46:12;;;;;;;;;;;;;;;;;;5030719;28;20404;-61
2022/10/22 12:48:38;;;;;;;;;;;;;;;;;;5030017;28;19921;-62
2022/10/22 12:51:06;;;;;;;;;;;;;;;;;;5031074;28;19917;-64
2022/10/22 12:53:33;;;;;;;;;;;;;;;;;;5030225;28;19967;-64
2022/10/22 12:55:58;;;;;;;;;;;;;;;;;;5031366;28;20276;-63
2022/10/22 12:58:24;;;;;;;;;;;;;;;;;;5030173;28;20263;-62
2022/10/22 13:00:50;;;;;;;;;;;;;;;;;;5030277;28;19964;-66
2022/10/22 13:03:16;;;;;;;;;;;;;;;;;;5030080;28;20370;-65
2022/10/22 13:05:42;;;;;;;;;;;;;;;;;;5030515;28;19917;-65
2022/10/22 13:08:08;;;;;;;;;;;;;;;;;;5029615;28;19932;-66
2022/10/22 13:10:34;;;;;;;;;;;;;;;;;;5030468;28;20015;-64
2022/10/22 13:13:05;;;;;;;;;;;;;;;;;;5030177;28;20351;-63
2022/10/22 13:15:34;;;;;;;;;;;;;;;;;;5030187;28;19963;-65
2022/10/22 13:18:00;;;;;;;;;;;;;;;;;;5030208;28;19941;-64
2022/10/22 13:20:26;;;;;;;;;;;;;;;;;;5029757;28;20471;-64
2022/10/22 13:22:51;;;;;;;;;;;;;;;;;;5029841;28;19917;-63
2022/10/22 13:25:21;;;;;;;;;;;;;;;;;;5029929;28;20275;-64
2022/10/22 13:27:47;;;;;;;;;;;;;;;;;;5029592;28;19913;-64
2022/10/22 13:30:12;;;;;;;;;;;;;;;;;;5029350;28;19919;-65
2022/10/22 13:32:38;;;;;;;;;;;;;;;;;;5028123;28;19975;-63
2022/10/22 13:35:04;;;;;;;;;;;;;;;;;;5029056;28;19952;-62
2022/10/22 13:37:30;;;;;;;;;;;;;;;;;;5029332;28;19963;-64
2022/10/22 13:39:56;;;;;;;;;;;;;;;;;;5028908;28;19991;-64
2022/10/22 13:42:22;;;;;;;;;;;;;;;;;;5029269;28;19913;-64
2022/10/22 13:44:48;;;;;;;;;;;;;;;;;;5029355;28;20044;-64
2022/10/22 13:47:14;;;;;;;;;;;;;;;;;;5028214;28;19909;-64
2022/10/22 13:49:43;;;;;;;;;;;;;;;;;;5029420;28;19925;-63
2022/10/22 13:52:09;;;;;;;;;;;;;;;;;;5029345;28;20051;-64
2022/10/22 13:54:36;;;;;;;;;;;;;;;;;;5028819;28;20417;-63
2022/10/22 13:57:02;;;;;;;;;;;;;;;;;;5029891;28;19959;-64
2022/10/22 13:59:28;;;;;;;;;;;;;;;;;;5028670;28;19944;-62
2022/10/22 14:01:55;;;;;;;;;;;;;;;;;;5028745;28;20032;-64
2022/10/22 14:04:21;;;;;;;;;;;;;;;;;;5029499;28;19920;-64
2022/10/22 14:06:47;;;;;;;;;;;;;;;;;;5029048;28;19917;-65
2022/10/22 14:09:13;;;;;;;;;;;;;;;;;;5029318;28;19909;-66
2022/10/22 14:11:39;;;;;;;;;;;;;;;;;;5028576;28;19925;-64
2022/10/22 14:14:07;;;;;;;;;;;;;;;;;;5029381;28;19913;-64
2022/10/22 14:16:33;;;;;;;;;;;;;;;;;;5029009;28;19913;-63
2022/10/22 14:18:59;;;;;;;;;;;;;;;;;;5029510;28;19916;-63
2022/10/22 14:21:25;;;;;;;;;;;;;;;;;;5029829;28;20362;-64
2022/10/22 14:23:52;;;;;;;;;;;;;;;;;;5029660;28;20057;-64
2022/10/22 14:26:19;;;;;;;;;;;;;;;;;;5027460;28;19913;-63
2022/10/22 14:28:45;;;;;;;;;;;;;;;;;;5027229;28;19913;-64
2022/10/22 14:31:11;;;;;;;;;;;;;;;;;;5029393;28;20008;-62
2022/10/22 14:33:37;;;;;;;;;;;;;;;;;;5029236;28;19913;-64
2022/10/22 14:36:03;;;;;;;;;;;;;;;;;;5028575;28;19921;-64
2022/10/22 14:38:29;;;;;;;;;;;;;;;;;;5028360;28;19928;-64
2022/10/22 14:40:54;;;;;;;;;;;;;;;;;;5029074;28;19920;-63
2022/10/22 14:43:20;;;;;;;;;;;;;;;;;;5026453;28;19913;-65
2022/10/22 14:45:46;;;;;;;;;;;;;;;;;;5029290;28;19981;-62
2022/10/22 14:48:12;;;;;;;;;;;;;;;;;;5029332;28;19929;-62
2022/10/22 14:50:38;;;;;;;;;;;;;;;;;;5028305;28;19921;-64
2022/10/22 14:53:04;;;;;;;;;;;;;;;;;;5027366;28;20357;-65
2022/10/22 14:55:30;;;;;;;;;;;;;;;;;;5027592;28;19909;-63
2022/10/22 14:57:56;;;;;;;;;;;;;;;;;;5028767;28;19909;-64
2022/10/22 15:00:22;;;;;;;;;;;;;;;;;;5029233;28;20025;-65
2022/10/22 15:02:48;;;;;;;;;;;;;;;;;;5029341;28;19917;-72
2022/10/22 15:05:14;;;;;;;;;;;;;;;;;;5028529;28;19916;-63
2022/10/22 15:07:40;;;;;;;;;;;;;;;;;;5029159;28;19909;-63
2022/10/22 15:10:06;;;;;;;;;;;;;;;;;;5028533;28;19914;-60
2022/10/22 15:12:32;;;;;;;;;;;;;;;;;;5028495;28;20446;-62
2022/10/22 15:14:58;;;;;;;;;;;;;;;;;;5029113;28;19909;-64
2022/10/22 15:17:23;;;;;;;;;;;;;;;;;;5029259;28;20259;-64
2022/10/22 15:19:49;;;;;;;;;;;;;;;;;;5028111;28;20012;-63
2022/10/22 15:22:16;;;;;;;;;;;;;;;;;;5032381;28;20390;-64
2022/10/22 15:24:44;;;;;;;;;;;;;;;;;;5032125;28;19917;-62
2022/10/22 15:27:12;;;;;;;;;;;;;;;;;;5032584;28;20004;-63
2022/10/22 15:29:38;;;;;;;;;;;;;;;;;;5032847;28;20011;-62
2022/10/22 15:32:04;;;;;;;;;;;;;;;;;;5028981;28;20020;-64
2022/10/22 15:34:30;;;;;;;;;;;;;;;;;;5031549;28;19909;-63
2022/10/22 15:36:56;;;;;;;;;;;;;;;;;;5032017;28;20333;-63
2022/10/22 15:39:22;;;;;;;;;;;;;;;;;;5031998;28;19932;-62
2022/10/22 15:41:48;;;;;;;;;;;;;;;;;;5032436;28;19913;-64
2022/10/22 15:44:14;;;;;;;;;;;;;;;;;;5032393;28;19909;-64
2022/10/22 15:46:39;;;;;;;;;;;;;;;;;;5032250;28;19909;-62
2022/10/22 15:49:05;;;;;;;;;;;;;;;;;;5031448;28;20405;-61
2022/10/22 15:51:31;;;;;;;;;;;;;;;;;;5031688;28;20000;-63
2022/10/22 15:53:57;;;;;;;;;;;;;;;;;;5032199;28;19960;-61
2022/10/22 15:56:23;;;;;;;;;;;;;;;;;;5032241;28;20361;-63
2022/10/22 15:58:49;;;;;;;;;;;;;;;;;;5031542;28;19932;-62
2022/10/22 16:01:15;;;;;;;;;;;;;;;;;;5032450;28;19909;-64
2022/10/22 16:03:41;;;;;;;;;;;;;;;;;;5031438;28;19916;-63
2022/10/22 16:06:07;;;;;;;;;;;;;;;;;;5031736;28;19923;-63
2022/10/22 16:08:32;;;;;;;;;;;;;;;;;;5031410;28;19989;-63
2022/10/22 16:10:58;;;;;;;;;;;;;;;;;;5031838;28;20399;-62
2022/10/22 16:13:25;;;;;;;;;;;;;;;;;;5032078;28;20458;-64
2022/10/22 16:15:51;;;;;;;;;;;;;;;;;;5029810;28;19910;-65
2022/10/22 16:18:17;;;;;;;;;;;;;;;;;;5031605;28;19963;-64
2022/10/22 16:20:43;;;;;;;;;;;;;;;;;;5031772;28;20415;-64
2022/10/22 16:23:09;;;;;;;;;;;;;;;;;;5032138;28;20489;-61
2022/10/22 16:25:34;;;;;;;;;;;;;;;;;;5031085;28;19924;-64
2022/10/22 16:28:00;;;;;;;;;;;;;;;;;;5031022;28;19913;-62
2022/10/22 16:30:26;;;;;;;;;;;;;;;;;;5031963;28;19925;-63
2022/10/22 16:32:52;;;;;;;;;;;;;;;;;;5031754;28;20055;-63
2022/10/22 16:35:18;;;;;;;;;;;;;;;;;;5031590;28;19913;-63
2022/10/22 16:37:44;;;;;;;;;;;;;;;;;;5031172;28;19913;-63